Time;durP1;ratioP1;P1;durP2;ratioP2;P2;SDS_P1;SDS_P2;PMS_P1;PMS_P2;Temp;Humidity;BMP_temperature;BMP_pressure;BME280_temperature;BME280_humidity;BME280_pressure;Samples;Min_cycle;Max_cycle;Signal;HPM_P1;HPM_P2
2023/09/27 00:00:23;;;;;;;7.97;5.70;;;;;;;;;;5092838;28;20203;-46
2023/09/27 00:02:49;;;;;;;7.10;6.30;;;;;;;;;;5091755;28;20172;-47
2023/09/27 00:05:16;;;;;;;7.13;6.07;;;;;;;;;;5092803;28;20528;-47
2023/09/27 00:07:43;;;;;;;7.53;6.23;;;;;;;;;;5092923;28;20237;-47
2023/09/27 00:10:10;;;;;;;9.63;6.23;;;;;;;;;;5091013;28;20167;-49
2023/09/27 00:12:36;;;;;;;6.43;5.83;;;;;;;;;;5092934;28;20189;-49
2023/09/27 00:15:02;;;;;;;6.60;6.00;;;;;;;;;;5091919;28;20233;-47
2023/09/27 00:17:29;;;;;;;6.67;5.73;;;;;;;;;;5090978;28;20477;-49
2023/09/27 00:19:55;;;;;;;6.10;5.50;;;;;;;;;;5090256;28;20172;-47
2023/09/27 00:22:21;;;;;;;6.23;5.63;;;;;;;;;;5089395;28;20188;-50
2023/09/27 00:24:48;;;;;;;8.27;6.37;;;;;;;;;;5092902;28;20180;-48
2023/09/27 00:27:15;;;;;;;6.57;5.83;;;;;;;;;;5092713;28;20167;-47
2023/09/27 00:29:41;;;;;;;6.93;6.23;;;;;;;;;;5091438;28;20246;-47
2023/09/27 00:32:08;;;;;;;6.77;5.80;;;;;;;;;;5091754;28;20207;-46
2023/09/27 00:34:35;;;;;;;6.90;6.00;;;;;;;;;;5093168;28;20204;-49
2023/09/27 00:37:01;;;;;;;8.83;6.53;;;;;;;;;;5095270;28;20286;-46
2023/09/27 00:39:27;;;;;;;7.30;6.10;;;;;;;;;;5096913;28;20210;-47
2023/09/27 00:41:54;;;;;;;6.50;5.57;;;;;;;;;;5097356;28;20227;-48
2023/09/27 00:44:20;;;;;;;6.73;6.13;;;;;;;;;;5095325;28;20222;-47
2023/09/27 00:46:46;;;;;;;8.47;5.83;;;;;;;;;;5095376;28;20179;-51
2023/09/27 00:49:13;;;;;;;7.47;6.70;;;;;;;;;;5097589;28;20176;-47
2023/09/27 00:51:40;;;;;;;6.47;5.87;;;;;;;;;;5096745;28;20184;-49
2023/09/27 00:54:07;;;;;;;6.93;6.07;;;;;;;;;;5095139;28;20453;-48
2023/09/27 00:56:34;;;;;;;7.43;6.67;;;;;;;;;;5096405;28;20323;-47
2023/09/27 00:59:00;;;;;;;8.27;6.47;;;;;;;;;;5096637;28;20175;-48
2023/09/27 01:01:27;;;;;;;7.27;6.57;;;;;;;;;;5096491;28;20332;-47
2023/09/27 01:03:53;;;;;;;8.13;6.33;;;;;;;;;;5096197;28;20175;-49
2023/09/27 01:06:20;;;;;;;8.73;5.93;;;;;;;;;;5097192;28;20171;-48
2023/09/27 01:08:46;;;;;;;7.40;6.13;;;;;;;;;;5115225;28;20270;-47
2023/09/27 01:11:12;;;;;;;6.97;6.37;;;;;;;;;;5096552;28;20179;-47
2023/09/27 01:13:38;;;;;;;8.27;6.53;;;;;;;;;;5114466;28;20601;-48
2023/09/27 01:16:05;;;;;;;7.03;6.33;;;;;;;;;;5114766;28;20600;-47
2023/09/27 01:18:31;;;;;;;8.60;6.40;;;;;;;;;;5095950;28;20172;-48
2023/09/27 01:20:57;;;;;;;6.80;5.97;;;;;;;;;;5096634;28;20239;-49
2023/09/27 01:23:23;;;;;;;6.67;6.07;;;;;;;;;;5095562;28;20462;-50
2023/09/27 01:25:58;;;;;;;7.13;6.43;;;;;;;;;;5094905;28;20348;-52
2023/09/27 01:28:24;;;;;;;6.97;6.30;;;;;;;;;;5094139;28;20171;-47
2023/09/27 01:30:50;;;;;;;9.40;7.00;;;;;;;;;;5094469;28;20186;-48
2023/09/27 01:33:16;;;;;;;7.70;6.97;;;;;;;;;;5111917;28;20199;-49
2023/09/27 01:35:44;;;;;;;10.43;7.40;;;;;;;;;;5092344;28;20238;-49
2023/09/27 01:38:10;;;;;;;8.50;6.97;;;;;;;;;;5090573;28;20180;-49
2023/09/27 01:40:40;;;;;;;7.63;6.97;;;;;;;;;;5091741;28;20179;-48
2023/09/27 01:43:07;;;;;;;8.40;6.83;;;;;;;;;;5093550;28;20184;-47
2023/09/27 01:45:33;;;;;;;7.20;6.50;;;;;;;;;;5093900;28;20254;-47
2023/09/27 01:48:00;;;;;;;7.33;6.63;;;;;;;;;;5094082;28;20279;-49
2023/09/27 01:50:26;;;;;;;7.50;6.80;;;;;;;;;;5093058;28;20517;-49
2023/09/27 01:52:52;;;;;;;8.10;7.30;;;;;;;;;;5091851;28;20212;-48
2023/09/27 01:55:18;;;;;;;8.03;6.43;;;;;;;;;;5092025;28;20164;-50
2023/09/27 01:57:47;;;;;;;9.03;6.47;;;;;;;;;;5092604;28;20521;-46
2023/09/27 02:00:14;;;;;;;7.27;6.67;;;;;;;;;;5092237;28;20244;-47
2023/09/27 02:02:50;;;;;;;6.80;6.10;;;;;;;;;;5091223;28;20347;-49
2023/09/27 02:05:16;;;;;;;8.33;6.77;;;;;;;;;;5090970;28;20679;-48
2023/09/27 02:07:42;;;;;;;7.83;7.13;;;;;;;;;;5090423;28;20172;-47
2023/09/27 02:10:09;;;;;;;10.93;6.90;;;;;;;;;;5091571;28;20176;-48
2023/09/27 02:12:36;;;;;;;9.47;6.87;;;;;;;;;;5089227;28;20599;-47
2023/09/27 02:15:03;;;;;;;7.27;6.67;;;;;;;;;;5091138;28;20168;-49
2023/09/27 02:17:29;;;;;;;7.57;6.83;;;;;;;;;;5091340;28;20163;-49
2023/09/27 02:19:56;;;;;;;7.00;6.30;;;;;;;;;;5091132;28;20160;-49
2023/09/27 02:22:23;;;;;;;7.33;6.70;;;;;;;;;;5089988;28;20245;-46
2023/09/27 02:24:49;;;;;;;8.37;7.47;;;;;;;;;;5090065;28;20374;-47
2023/09/27 02:27:15;;;;;;;7.43;6.73;;;;;;;;;;5087674;28;20206;-48
2023/09/27 02:29:43;;;;;;;7.57;6.73;;;;;;;;;;5090477;28;20710;-50
2023/09/27 02:32:10;;;;;;;8.23;7.03;;;;;;;;;;5090454;28;20176;-47
2023/09/27 02:34:36;;;;;;;8.17;7.33;;;;;;;;;;5092640;28;20211;-47
2023/09/27 02:37:03;;;;;;;7.97;7.10;;;;;;;;;;5094563;28;20179;-46
2023/09/27 02:39:29;;;;;;;8.00;6.73;;;;;;;;;;5094956;28;20174;-52
2023/09/27 02:41:58;;;;;;;7.63;6.90;;;;;;;;;;5112453;28;20163;-47
2023/09/27 02:44:25;;;;;;;8.37;6.37;;;;;;;;;;5093771;28;20382;-48
2023/09/27 02:46:55;;;;;;;8.73;7.47;;;;;;;;;;5111683;28;20228;-49
2023/09/27 02:49:21;;;;;;;13.57;7.37;;;;;;;;;;5112365;28;20236;-51
2023/09/27 02:51:47;;;;;;;7.70;7.00;;;;;;;;;;5111678;28;20247;-48
2023/09/27 02:54:14;;;;;;;8.60;7.27;;;;;;;;;;5095007;28;20195;-50
2023/09/27 02:56:40;;;;;;;8.67;7.77;;;;;;;;;;5093303;28;20160;-49
2023/09/27 02:59:06;;;;;;;8.60;7.30;;;;;;;;;;5110062;28;20532;-49
2023/09/27 03:01:32;;;;;;;7.87;6.90;;;;;;;;;;5111055;28;20248;-47
2023/09/27 03:03:58;;;;;;;7.83;7.03;;;;;;;;;;5094829;28;20507;-47
2023/09/27 03:06:24;;;;;;;7.47;6.67;;;;;;;;;;5093716;28;20175;-50
2023/09/27 03:08:50;;;;;;;8.00;6.87;;;;;;;;;;5111405;28;20175;-47
2023/09/27 03:11:17;;;;;;;8.50;7.53;;;;;;;;;;5093173;28;20171;-48
2023/09/27 03:13:44;;;;;;;7.67;6.97;;;;;;;;;;5092877;28;20211;-48
2023/09/27 03:16:10;;;;;;;7.40;6.80;;;;;;;;;;5112124;28;20616;-50
2023/09/27 03:18:37;;;;;;;6.90;6.30;;;;;;;;;;5092354;28;20277;-47
2023/09/27 03:21:03;;;;;;;7.63;6.83;;;;;;;;;;5093679;28;20167;-49
2023/09/27 03:23:29;;;;;;;7.87;7.13;;;;;;;;;;5092261;28;20543;-47
2023/09/27 03:25:56;;;;;;;7.63;6.70;;;;;;;;;;5091435;28;20179;-47
2023/09/27 03:28:23;;;;;;;7.87;6.67;;;;;;;;;;5111081;28;20171;-48
2023/09/27 03:30:49;;;;;;;9.57;7.43;;;;;;;;;;5092717;28;20199;-48
2023/09/27 03:33:15;;;;;;;7.63;6.93;;;;;;;;;;5091801;28;20435;-52
2023/09/27 03:35:42;;;;;;;7.10;6.27;;;;;;;;;;5087569;28;20220;-47
2023/09/27 03:38:08;;;;;;;10.73;7.50;;;;;;;;;;5088485;28;20560;-49
2023/09/27 03:40:34;;;;;;;7.23;6.53;;;;;;;;;;5089004;28;20179;-49
2023/09/27 03:43:00;;;;;;;8.50;7.70;;;;;;;;;;5093264;28;20384;-47
2023/09/27 03:45:26;;;;;;;8.80;7.90;;;;;;;;;;5088921;28;20494;-47
2023/09/27 03:47:52;;;;;;;7.67;6.87;;;;;;;;;;5088277;28;20182;-50
2023/09/27 03:50:18;;;;;;;7.43;6.60;;;;;;;;;;5089412;28;20259;-48
2023/09/27 03:52:44;;;;;;;8.03;7.23;;;;;;;;;;5087923;28;20180;-49
2023/09/27 03:55:11;;;;;;;9.70;6.83;;;;;;;;;;5087820;28;20168;-47
2023/09/27 03:57:38;;;;;;;8.60;7.10;;;;;;;;;;5088163;28;20520;-49
2023/09/27 04:00:06;;;;;;;7.30;6.60;;;;;;;;;;5087229;28;20165;-47
2023/09/27 04:02:32;;;;;;;7.67;6.87;;;;;;;;;;5085469;28;20168;-47
2023/09/27 04:04:58;;;;;;;9.93;7.30;;;;;;;;;;5086103;28;20199;-46
2023/09/27 04:07:25;;;;;;;7.83;7.03;;;;;;;;;;5087100;28;20252;-46
2023/09/27 04:09:51;;;;;;;8.90;8.00;;;;;;;;;;5089209;28;20251;-48
2023/09/27 04:12:17;;;;;;;8.23;6.87;;;;;;;;;;5088304;28;20640;-47
2023/09/27 04:14:44;;;;;;;7.37;6.50;;;;;;;;;;5088764;28;20200;-46
2023/09/27 04:17:10;;;;;;;8.90;7.53;;;;;;;;;;5088537;28;20200;-46
2023/09/27 04:19:36;;;;;;;7.73;6.93;;;;;;;;;;5091322;28;20195;-49
2023/09/27 04:22:02;;;;;;;7.30;6.60;;;;;;;;;;5093967;28;20211;-48
2023/09/27 04:24:28;;;;;;;8.10;7.13;;;;;;;;;;5094931;28;20456;-49
2023/09/27 04:26:54;;;;;;;9.47;6.77;;;;;;;;;;5091549;28;20176;-48
2023/09/27 04:29:20;;;;;;;7.93;7.13;;;;;;;;;;5090448;28;20184;-50
2023/09/27 04:31:47;;;;;;;11.13;7.67;;;;;;;;;;5090819;28;20176;-46
2023/09/27 04:34:13;;;;;;;10.00;7.83;;;;;;;;;;5092099;28;20260;-46
2023/09/27 04:36:40;;;;;;;7.47;6.50;;;;;;;;;;5091571;28;20231;-48
2023/09/27 04:39:11;;;;;;;8.27;7.27;;;;;;;;;;5090149;28;20178;-49
2023/09/27 04:41:37;;;;;;;9.17;7.10;;;;;;;;;;5091323;28;20286;-49
2023/09/27 04:44:04;;;;;;;9.00;7.70;;;;;;;;;;5089612;28;20172;-48
2023/09/27 04:46:32;;;;;;;8.13;7.33;;;;;;;;;;5091326;28;20262;-47
2023/09/27 04:48:58;;;;;;;9.50;7.10;;;;;;;;;;5090335;28;20179;-52
2023/09/27 04:51:25;;;;;;;8.37;7.57;;;;;;;;;;5090173;28;20203;-54
2023/09/27 04:53:51;;;;;;;8.87;7.83;;;;;;;;;;5090157;28;20218;-48
2023/09/27 04:56:17;;;;;;;8.70;7.80;;;;;;;;;;5089258;28;20171;-46
2023/09/27 04:58:43;;;;;;;9.93;8.07;;;;;;;;;;5090153;28;20174;-48
2023/09/27 05:01:09;;;;;;;8.83;7.90;;;;;;;;;;5089954;28;20174;-48
2023/09/27 05:03:35;;;;;;;10.30;8.03;;;;;;;;;;5087887;28;20591;-48
2023/09/27 05:06:02;;;;;;;8.50;6.97;;;;;;;;;;5088645;28;20172;-47
2023/09/27 05:08:29;;;;;;;9.70;8.70;;;;;;;;;;5087827;28;20229;-49
2023/09/27 05:10:56;;;;;;;9.87;8.70;;;;;;;;;;5088941;28;20414;-49
2023/09/27 05:13:22;;;;;;;9.00;8.00;;;;;;;;;;5088596;28;20294;-49
2023/09/27 05:15:52;;;;;;;8.97;8.00;;;;;;;;;;5087843;28;20168;-47
2023/09/27 05:18:18;;;;;;;8.93;7.93;;;;;;;;;;5089369;28;20171;-47
2023/09/27 05:20:44;;;;;;;9.07;8.00;;;;;;;;;;5088805;28;20533;-48
2023/09/27 05:23:11;;;;;;;10.83;7.37;;;;;;;;;;5087430;28;20183;-47
2023/09/27 05:25:37;;;;;;;8.43;7.40;;;;;;;;;;5086909;28;20453;-48
2023/09/27 05:28:03;;;;;;;9.27;7.50;;;;;;;;;;5086567;28;20463;-49
2023/09/27 05:30:29;;;;;;;9.73;8.00;;;;;;;;;;5087670;28;20172;-50
2023/09/27 05:32:55;;;;;;;11.83;9.27;;;;;;;;;;5089483;28;20751;-47
2023/09/27 05:35:22;;;;;;;11.43;7.83;;;;;;;;;;5088196;28;20689;-47
2023/09/27 05:37:49;;;;;;;11.40;7.43;;;;;;;;;;5089470;28;20251;-48
2023/09/27 05:40:15;;;;;;;10.87;8.57;;;;;;;;;;5087852;28;20233;-48
2023/09/27 05:42:41;;;;;;;9.77;7.67;;;;;;;;;;5088547;28;20168;-53
2023/09/27 05:45:10;;;;;;;11.40;8.00;;;;;;;;;;5089784;28;20172;-50
2023/09/27 05:47:37;;;;;;;10.90;7.70;;;;;;;;;;5086830;28;20331;-47
2023/09/27 05:50:04;;;;;;;12.83;7.93;;;;;;;;;;5087115;28;20266;-47
2023/09/27 05:52:30;;;;;;;10.50;7.33;;;;;;;;;;5085007;28;20179;-48
2023/09/27 05:54:56;;;;;;;13.07;8.10;;;;;;;;;;5082238;28;20583;-47
2023/09/27 05:57:23;;;;;;;9.93;7.80;;;;;;;;;;5085254;28;20175;-46
2023/09/27 05:59:50;;;;;;;10.57;8.20;;;;;;;;;;5081992;28;20199;-49
2023/09/27 06:02:20;;;;;;;15.20;7.60;;;;;;;;;;5083443;28;20334;-49
2023/09/27 06:04:46;;;;;;;15.90;8.53;;;;;;;;;;5089076;28;20176;-49
2023/09/27 06:07:14;;;;;;;16.33;8.40;;;;;;;;;;5088860;28;20628;-48
2023/09/27 06:09:41;;;;;;;13.57;8.57;;;;;;;;;;5088371;28;20656;-47
2023/09/27 06:12:07;;;;;;;11.60;8.17;;;;;;;;;;5088160;28;20290;-47
2023/09/27 06:14:33;;;;;;;13.83;8.57;;;;;;;;;;5089770;28;20759;-49
2023/09/27 06:16:59;;;;;;;15.73;8.10;;;;;;;;;;5089892;28;20164;-50
2023/09/27 06:19:25;;;;;;;15.93;7.73;;;;;;;;;;5092283;28;20237;-50
2023/09/27 06:21:51;;;;;;;9.77;7.90;;;;;;;;;;5093191;28;20176;-49
2023/09/27 06:24:17;;;;;;;10.97;8.63;;;;;;;;;;5092582;28;20179;-49
2023/09/27 06:26:43;;;;;;;11.67;7.50;;;;;;;;;;5091183;28;20167;-48
2023/09/27 06:29:09;;;;;;;10.63;7.90;;;;;;;;;;5090838;28;20172;-49
2023/09/27 06:31:36;;;;;;;15.13;8.10;;;;;;;;;;5090887;28;20232;-50
2023/09/27 06:34:03;;;;;;;13.67;8.07;;;;;;;;;;5089780;28;20809;-49
2023/09/27 06:36:32;;;;;;;13.23;7.70;;;;;;;;;;5089584;28;20334;-47
2023/09/27 06:38:59;;;;;;;16.53;8.50;;;;;;;;;;5090052;28;20326;-47
2023/09/27 06:41:25;;;;;;;17.30;9.90;;;;;;;;;;5088945;28;20156;-47
2023/09/27 06:43:51;;;;;;;16.87;8.93;;;;;;;;;;5086749;28;20168;-47
2023/09/27 06:46:17;;;;;;;18.47;9.30;;;;;;;;;;5087102;28;20286;-47
2023/09/27 06:48:43;;;;;;;20.50;9.50;;;;;;;;;;5088325;28;20179;-50
2023/09/27 06:51:11;;;;;;;13.67;8.07;;;;;;;;;;5086345;28;20260;-47
2023/09/27 06:53:38;;;;;;;11.80;7.27;;;;;;;;;;5086475;28;20204;-51
2023/09/27 06:56:05;;;;;;;16.60;9.57;;;;;;;;;;5089105;28;20543;-47
2023/09/27 06:58:31;;;;;;;11.60;8.03;;;;;;;;;;5089617;28;20168;-50
2023/09/27 07:00:59;;;;;;;8.63;6.77;;;;;;;;;;5087030;28;20179;-49
2023/09/27 07:03:27;;;;;;;14.23;8.47;;;;;;;;;;5088214;28;20204;-49
2023/09/27 07:05:53;;;;;;;11.10;7.43;;;;;;;;;;5089758;28;20276;-49
2023/09/27 07:08:19;;;;;;;13.20;8.10;;;;;;;;;;5091050;28;20230;-49
2023/09/27 07:10:45;;;;;;;15.27;8.67;;;;;;;;;;5089650;28;20736;-47
2023/09/27 07:13:11;;;;;;;11.97;7.73;;;;;;;;;;5088780;28;20200;-52
2023/09/27 07:15:37;;;;;;;12.33;8.40;;;;;;;;;;5088129;28;20172;-48
2023/09/27 07:18:05;;;;;;;14.90;8.47;;;;;;;;;;5086702;28;20511;-50
2023/09/27 07:20:34;;;;;;;8.27;7.40;;;;;;;;;;5087916;28;20164;-49
2023/09/27 07:23:05;;;;;;;9.40;6.73;;;;;;;;;;5086306;28;20179;-48
2023/09/27 07:25:34;;;;;;;8.77;7.87;;;;;;;;;;5086151;28;20161;-53
2023/09/27 07:28:02;;;;;;;9.90;8.40;;;;;;;;;;5084819;28;20195;-48
2023/09/27 07:30:28;;;;;;;10.47;7.70;;;;;;;;;;5086260;28;20578;-47
2023/09/27 07:32:55;;;;;;;9.00;8.00;;;;;;;;;;5087024;28;20165;-49
2023/09/27 07:35:21;;;;;;;10.20;7.27;;;;;;;;;;5096352;28;20250;-49
2023/09/27 07:37:47;;;;;;;10.27;9.10;;;;;;;;;;5091783;28;20167;-47
2023/09/27 07:40:14;;;;;;;11.80;7.73;;;;;;;;;;5092076;28;20223;-49
2023/09/27 07:42:41;;;;;;;9.73;8.60;;;;;;;;;;5110479;28;20164;-47
2023/09/27 07:45:21;;;;;;;7.20;6.50;;;;;;;;;;5092819;28;20175;-50
2023/09/27 07:47:51;;;;;;;9.47;6.77;;;;;;;;;;5110622;28;20163;-47
2023/09/27 07:50:18;;;;;;;10.93;6.67;;;;;;;;;;5091375;28;20190;-47
2023/09/27 07:52:44;;;;;;;9.23;7.77;;;;;;;;;;5092801;28;20179;-47
2023/09/27 07:55:12;;;;;;;10.53;9.00;;;;;;;;;;5095120;28;20215;-49
2023/09/27 07:57:37;;;;;;;6.33;5.73;;;;;;;;;;5095929;28;20382;-47
2023/09/27 08:00:10;;;;;;;10.37;7.50;;;;;;;;;;5096402;28;20629;-49
2023/09/27 08:02:36;;;;;;;10.20;7.73;;;;;;;;;;5114449;28;20501;-48
2023/09/27 08:05:09;;;;;;;8.90;7.23;;;;;;;;;;5096836;28;20171;-49
2023/09/27 08:07:36;;;;;;;10.97;8.07;;;;;;;;;;5115538;28;20581;-49
2023/09/27 08:10:02;;;;;;;8.90;6.60;;;;;;;;;;5096795;28;20270;-47
2023/09/27 08:12:31;;;;;;;8.87;7.50;;;;;;;;;;5092655;28;20175;-49
2023/09/27 08:14:58;;;;;;;8.67;6.70;;;;;;;;;;5091511;28;20583;-47
2023/09/27 08:17:24;;;;;;;8.47;6.47;;;;;;;;;;5089855;28;20270;-47
2023/09/27 08:19:49;;;;;;;8.50;6.67;;;;;;;;;;5090775;28;20223;-49
2023/09/27 08:22:15;;;;;;;11.47;8.23;;;;;;;;;;5107887;28;20236;-47
2023/09/27 08:24:42;;;;;;;10.87;7.80;;;;;;;;;;5088977;28;20171;-47
2023/09/27 08:27:08;;;;;;;9.70;7.10;;;;;;;;;;5089396;28;20167;-47
2023/09/27 08:29:34;;;;;;;8.60;7.57;;;;;;;;;;5087723;28;20444;-47
2023/09/27 08:32:00;;;;;;;9.90;8.30;;;;;;;;;;5088288;28;20439;-47
2023/09/27 08:34:27;;;;;;;11.20;9.27;;;;;;;;;;5089524;28;20317;-48
2023/09/27 08:36:53;;;;;;;9.23;6.93;;;;;;;;;;5089050;28;20626;-48
2023/09/27 08:39:20;;;;;;;8.40;5.77;;;;;;;;;;5089251;28;20359;-47
2023/09/27 08:41:46;;;;;;;11.60;8.67;;;;;;;;;;5089633;28;20623;-47
2023/09/27 08:44:12;;;;;;;10.00;7.53;;;;;;;;;;5108016;28;20159;-48
2023/09/27 08:46:39;;;;;;;11.83;8.50;;;;;;;;;;5107990;28;20199;-47
2023/09/27 08:49:08;;;;;;;10.10;7.90;;;;;;;;;;5088263;28;20460;-49
2023/09/27 08:51:34;;;;;;;8.87;7.70;;;;;;;;;;5107312;28;20214;-48
2023/09/27 08:54:00;;;;;;;10.27;8.57;;;;;;;;;;5105548;28;20199;-48
2023/09/27 08:56:27;;;;;;;9.83;6.93;;;;;;;;;;5088828;28;20188;-48
2023/09/27 08:58:52;;;;;;;7.23;6.50;;;;;;;;;;5104934;28;20190;-50
2023/09/27 09:01:19;;;;;;;6.93;5.03;;;;;;;;;;5105104;28;20172;-47
2023/09/27 09:03:46;;;;;;;6.40;5.37;;;;;;;;;;5086797;28;20688;-47
2023/09/27 09:06:12;;;;;;;7.80;5.70;;;;;;;;;;5091733;28;20593;-51
2023/09/27 09:08:47;;;;;;;7.30;6.53;;;;;;;;;;5096443;28;20186;-49
2023/09/27 09:11:16;;;;;;;9.30;6.07;;;;;;;;;;5096601;28;20178;-50
2023/09/27 09:13:56;;;;;;;7.90;5.10;;;;;;;;;;5095620;28;20203;-47
2023/09/27 09:16:23;;;;;;;7.33;5.87;;;;;;;;;;5113712;28;20606;-48
2023/09/27 09:18:51;;;;;;;7.17;6.40;;;;;;;;;;5096987;28;20167;-48
2023/09/27 09:21:19;;;;;;;7.63;5.47;;;;;;;;;;5115141;28;20173;-47
2023/09/27 09:23:49;;;;;;;8.07;6.37;;;;;;;;;;5096443;28;20179;-50
2023/09/27 09:26:27;;;;;;;8.03;6.20;;;;;;;;;;5095780;28;20527;-49
2023/09/27 09:28:59;;;;;;;5.63;4.53;;;;;;;;;;5096183;28;20189;-49
2023/09/27 09:31:26;;;;;;;14.50;7.13;;;;;;;;;;5094147;28;20171;-47
2023/09/27 09:34:08;;;;;;;7.97;4.83;;;;;;;;;;5094232;28;20203;-49
2023/09/27 09:36:35;;;;;;;7.73;4.50;;;;;;;;;;5094237;28;20630;-47
2023/09/27 09:39:14;;;;;;;10.27;4.40;;;;;;;;;;5093561;28;20186;-47
2023/09/27 09:41:51;;;;;;;5.40;4.23;;;;;;;;;;5111080;28;20535;-47
2023/09/27 09:44:19;;;;;;;8.97;5.00;;;;;;;;;;5094695;28;20270;-47
2023/09/27 09:46:45;;;;;;;5.60;4.10;;;;;;;;;;5092718;28;20171;-50
2023/09/27 09:49:11;;;;;;;11.43;6.80;;;;;;;;;;5093380;28;20437;-51
2023/09/27 09:51:41;;;;;;;6.17;5.13;;;;;;;;;;5093080;28;20482;-50
2023/09/27 09:54:08;;;;;;;9.83;6.90;;;;;;;;;;5092291;28;20203;-49
2023/09/27 09:56:35;;;;;;;10.63;6.33;;;;;;;;;;5092837;28;20469;-47
2023/09/27 09:59:07;;;;;;;7.30;4.80;;;;;;;;;;5092957;28;20167;-47
2023/09/27 10:01:39;;;;;;;5.63;4.10;;;;;;;;;;5092960;28;20171;-49
2023/09/27 10:04:05;;;;;;;6.20;5.00;;;;;;;;;;5110915;28;20175;-48
2023/09/27 10:06:32;;;;;;;7.13;4.40;;;;;;;;;;5111202;28;20462;-48
2023/09/27 10:09:01;;;;;;;6.57;4.30;;;;;;;;;;5093165;28;20682;-51
2023/09/27 10:11:27;;;;;;;6.60;4.73;;;;;;;;;;5094019;28;20266;-48
2023/09/27 10:13:53;;;;;;;7.97;4.67;;;;;;;;;;5093090;28;20495;-47
2023/09/27 10:16:23;;;;;;;10.17;5.03;;;;;;;;;;5110835;28;20170;-49
2023/09/27 10:18:48;;;;;;;7.40;5.50;;;;;;;;;;5094573;28;20171;-49
2023/09/27 10:21:15;;;;;;;8.77;4.63;;;;;;;;;;5094831;28;20174;-48
2023/09/27 10:23:52;;;;;;;8.27;3.60;;;;;;;;;;5094090;28;20270;-50
2023/09/27 10:26:28;;;;;;;7.43;3.83;;;;;;;;;;5094898;28;20175;-47
2023/09/27 10:29:03;;;;;;;7.80;4.23;;;;;;;;;;5094249;28;20265;-50
2023/09/27 10:31:37;;;;;;;10.00;4.70;;;;;;;;;;5095039;28;20261;-50
2023/09/27 10:34:24;;;;;;;6.23;4.27;;;;;;;;;;5111992;28;20348;-47
2023/09/27 10:36:49;;;;;;;6.13;4.00;;;;;;;;;;5091128;28;20231;-47
2023/09/27 10:39:17;;;;;;;7.83;3.90;;;;;;;;;;5090113;28;20237;-47
2023/09/27 10:41:46;;;;;;;7.03;3.60;;;;;;;;;;5086063;28;20160;-52
2023/09/27 10:44:12;;;;;;;4.87;2.93;;;;;;;;;;5082722;28;20172;-50
2023/09/27 10:46:48;;;;;;;6.60;3.37;;;;;;;;;;5081528;28;20191;-52
2023/09/27 10:49:21;;;;;;;4.00;2.90;;;;;;;;;;5083607;28;20362;-48
2023/09/27 10:51:47;;;;;;;6.10;2.93;;;;;;;;;;5083978;28;20449;-48
2023/09/27 10:54:13;;;;;;;6.27;3.83;;;;;;;;;;5082802;28;20341;-49
2023/09/27 10:56:44;;;;;;;9.50;3.27;;;;;;;;;;5081796;28;20328;-47
2023/09/27 10:59:10;;;;;;;4.33;3.07;;;;;;;;;;5083350;28;20735;-47
2023/09/27 11:01:43;;;;;;;8.23;3.73;;;;;;;;;;5082375;28;20770;-48
2023/09/27 11:04:12;;;;;;;3.67;2.67;;;;;;;;;;5083426;28;20179;-51
2023/09/27 11:06:38;;;;;;;3.63;2.40;;;;;;;;;;5082109;28;20377;-47
2023/09/27 11:09:06;;;;;;;3.57;2.43;;;;;;;;;;5080821;28;20434;-47
2023/09/27 11:11:32;;;;;;;4.80;3.20;;;;;;;;;;5080858;28;20179;-47
2023/09/27 11:13:58;;;;;;;2.83;2.40;;;;;;;;;;5077792;28;20196;-47
2023/09/27 11:16:24;;;;;;;5.23;3.33;;;;;;;;;;5079985;28;20267;-49
2023/09/27 11:18:56;;;;;;;3.80;2.20;;;;;;;;;;5080384;28;20266;-47
2023/09/27 11:21:31;;;;;;;6.03;3.43;;;;;;;;;;5082483;28;20172;-48
2023/09/27 11:24:04;;;;;;;3.43;3.10;;;;;;;;;;5083749;28;20160;-52
2023/09/27 11:26:34;;;;;;;5.43;2.57;;;;;;;;;;5083476;28;20209;-52
2023/09/27 11:29:04;;;;;;;2.60;2.10;;;;;;;;;;5082838;28;20244;-51
2023/09/27 11:31:34;;;;;;;3.57;2.87;;;;;;;;;;5086715;28;20174;-49
2023/09/27 11:34:30;;;;;;;3.10;2.73;;;;;;;;;;5085909;28;20204;-49
2023/09/27 11:37:02;;;;;;;3.57;2.73;;;;;;;;;;5066114;28;20192;-50
2023/09/27 11:39:29;;;;;;;4.40;3.07;;;;;;;;;;5090168;28;20171;-48
2023/09/27 11:41:59;;;;;;;5.77;3.97;;;;;;;;;;5088545;28;20232;-50
2023/09/27 11:44:25;;;;;;;3.33;2.53;;;;;;;;;;5088331;28;20176;-51
2023/09/27 11:46:52;;;;;;;6.03;2.80;;;;;;;;;;5086503;28;20254;-48
2023/09/27 11:49:18;;;;;;;3.57;2.40;;;;;;;;;;5087126;28;20240;-48
2023/09/27 11:51:44;;;;;;;3.97;2.40;;;;;;;;;;5086895;28;20180;-52
2023/09/27 11:54:14;;;;;;;4.07;2.70;;;;;;;;;;5086019;28;20534;-51
2023/09/27 11:56:46;;;;;;;6.17;2.80;;;;;;;;;;5084934;28;20164;-48
2023/09/27 11:59:12;;;;;;;4.05;3.25;;;;;;;;;;5084927;28;20197;-52
2023/09/27 12:01:39;;;;;;;2.85;2.45;;;;;;;;;;5084144;28;20179;-48
2023/09/27 12:04:05;;;;;;;5.93;3.33;;;;;;;;;;5085358;28;20171;-50
2023/09/27 12:06:31;;;;;;;8.10;3.10;;;;;;;;;;5085294;28;20176;-48
2023/09/27 12:08:57;;;;;;;4.38;2.30;;;;;;;;;;5083783;28;20400;-52
2023/09/27 12:11:26;;;;;;;3.55;2.85;;;;;;;;;;5080865;28;20175;-48
2023/09/27 12:13:53;;;;;;;3.90;2.97;;;;;;;;;;5083751;28;20275;-48
2023/09/27 12:16:20;;;;;;;5.20;3.53;;;;;;;;;;5090761;28;20176;-53
2023/09/27 12:18:46;;;;;;;13.97;3.27;;;;;;;;;;5089980;28;20267;-49
2023/09/27 12:21:13;;;;;;;7.13;3.03;;;;;;;;;;5085818;28;20758;-48
2023/09/27 12:23:40;;;;;;;5.57;3.25;;;;;;;;;;5087009;28;20191;-49
2023/09/27 12:26:07;;;;;;;7.20;3.20;;;;;;;;;;5090513;28;20453;-49
2023/09/27 12:28:36;;;;;;;4.93;3.40;;;;;;;;;;5091654;28;20168;-47
2023/09/27 12:31:06;;;;;;;5.32;3.15;;;;;;;;;;5093320;28;20164;-53
2023/09/27 12:33:32;;;;;;;6.97;3.08;;;;;;;;;;5092938;28;20656;-47
2023/09/27 12:35:58;;;;;;;4.85;3.05;;;;;;;;;;5092380;28;20297;-52
2023/09/27 12:38:26;;;;;;;6.68;4.00;;;;;;;;;;5092778;28;20176;-50
2023/09/27 12:40:52;;;;;;;4.38;3.40;;;;;;;;;;5091364;28;20211;-49
2023/09/27 12:43:18;;;;;;;5.50;2.80;;;;;;;;;;5091402;28;20175;-54
2023/09/27 12:45:44;;;;;;;5.95;3.13;;;;;;;;;;5088174;28;20164;-48
2023/09/27 12:48:11;;;;;;;4.93;3.17;;;;;;;;;;5088612;28;20168;-51
2023/09/27 12:50:45;;;;;;;6.45;2.83;;;;;;;;;;5089049;28;20178;-51
2023/09/27 12:53:11;;;;;;;4.03;3.08;;;;;;;;;;5089662;28;20218;-52
2023/09/27 12:55:41;;;;;;;4.55;3.08;;;;;;;;;;5090642;28;20183;-48
2023/09/27 12:58:08;;;;;;;5.45;3.13;;;;;;;;;;5090889;28;20180;-52
2023/09/27 13:00:36;;;;;;;4.40;2.80;;;;;;;;;;5090767;28;20300;-49
2023/09/27 13:03:03;;;;;;;6.35;2.70;;;;;;;;;;5092221;28;20179;-48
2023/09/27 13:05:29;;;;;;;4.10;3.13;;;;;;;;;;5091435;28;20200;-51
2023/09/27 13:07:56;;;;;;;6.13;3.05;;;;;;;;;;5092742;28;20262;-50
2023/09/27 13:10:22;;;;;;;5.13;3.08;;;;;;;;;;5090788;28;20164;-49
2023/09/27 13:12:49;;;;;;;4.77;2.90;;;;;;;;;;5091408;28;20179;-48
2023/09/27 13:15:15;;;;;;;6.22;3.47;;;;;;;;;;5091848;28;20239;-50
2023/09/27 13:17:41;;;;;;;4.03;3.10;;;;;;;;;;5090525;28;20539;-52
2023/09/27 13:20:09;;;;;;;7.13;3.63;;;;;;;;;;5090254;28;20176;-50
2023/09/27 13:22:36;;;;;;;7.22;3.38;;;;;;;;;;5089429;28;20237;-52
2023/09/27 13:25:03;;;;;;;6.70;3.50;;;;;;;;;;5089527;28;20180;-48
2023/09/27 13:27:30;;;;;;;6.20;2.97;;;;;;;;;;5089976;28;20568;-48
2023/09/27 13:29:56;;;;;;;7.00;3.60;;;;;;;;;;5088851;28;20230;-49
2023/09/27 13:32:23;;;;;;;6.97;3.57;;;;;;;;;;5088890;28;20172;-50
2023/09/27 13:34:49;;;;;;;9.33;3.70;;;;;;;;;;5090419;28;20330;-53
2023/09/27 13:37:19;;;;;;;3.47;2.47;;;;;;;;;;5107767;28;20258;-48
2023/09/27 13:39:46;;;;;;;5.37;3.20;;;;;;;;;;5092203;28;20182;-50
2023/09/27 13:42:12;;;;;;;4.00;2.80;;;;;;;;;;5109529;28;20163;-49
2023/09/27 13:44:38;;;;;;;4.13;3.10;;;;;;;;;;5091223;28;20183;-49
2023/09/27 13:47:05;;;;;;;3.30;2.58;;;;;;;;;;5090423;28;20182;-48
2023/09/27 13:49:31;;;;;;;2.83;2.53;;;;;;;;;;5091366;28;20271;-50
2023/09/27 13:51:57;;;;;;;4.90;2.70;;;;;;;;;;5091249;28;20210;-50
2023/09/27 13:54:23;;;;;;;2.77;2.20;;;;;;;;;;5092142;28;20510;-51
2023/09/27 13:56:51;;;;;;;3.90;2.40;;;;;;;;;;5091789;28;20211;-52
2023/09/27 13:59:19;;;;;;;4.68;2.97;;;;;;;;;;5109353;28;20162;-49
2023/09/27 14:01:46;;;;;;;4.32;2.80;;;;;;;;;;5108834;28;20160;-51
2023/09/27 14:04:12;;;;;;;5.10;2.80;;;;;;;;;;5090122;28;20213;-53
2023/09/27 14:06:38;;;;;;;5.30;2.93;;;;;;;;;;5089950;28;20179;-51
2023/09/27 14:09:04;;;;;;;3.28;2.00;;;;;;;;;;5090744;28;20175;-49
2023/09/27 14:11:30;;;;;;;3.63;2.92;;;;;;;;;;5106734;28;20243;-48
2023/09/27 14:13:56;;;;;;;3.85;2.38;;;;;;;;;;5088274;28;20195;-50
2023/09/27 14:16:22;;;;;;;3.40;2.80;;;;;;;;;;5107399;28;20746;-53
2023/09/27 14:18:48;;;;;;;3.95;2.65;;;;;;;;;;5108133;28;20646;-53
2023/09/27 14:21:14;;;;;;;6.13;2.90;;;;;;;;;;5108908;28;20292;-50
2023/09/27 14:23:42;;;;;;;3.80;2.80;;;;;;;;;;5109535;28;20176;-52
2023/09/27 14:26:09;;;;;;;3.65;2.83;;;;;;;;;;5087950;28;20605;-48
2023/09/27 14:28:35;;;;;;;3.83;2.90;;;;;;;;;;5105993;28;20213;-51
2023/09/27 14:31:01;;;;;;;3.58;2.63;;;;;;;;;;5088914;28;20167;-50
2023/09/27 14:33:28;;;;;;;5.40;2.83;;;;;;;;;;5089010;28;20202;-51
2023/09/27 14:35:53;;;;;;;5.90;2.88;;;;;;;;;;5104886;28;20380;-51
2023/09/27 14:38:19;;;;;;;5.22;3.25;;;;;;;;;;5057287;28;20325;-50
2023/09/27 14:40:45;;;;;;;3.60;3.05;;;;;;;;;;5024690;28;20190;-49